createdAt,value
2019-04-07T00:00:26.524Z,4.2302
2019-04-07T00:01:44.377Z,4.2889
2019-04-07T00:03:02.453Z,4.3877
2019-04-07T00:04:20.355Z,4.3877
2019-04-07T00:05:37.875Z,4.5266
2019-04-07T00:06:56.141Z,4.3877
2019-04-07T00:08:13.669Z,4.2596
2019-04-07T00:09:31.132Z,4.1875
2019-04-07T00:10:48.614Z,4.1581
2019-04-07T00:12:06.131Z,4.3450
2019-04-07T00:13:23.651Z,4.4144
2019-04-07T00:14:41.104Z,4.4999
2019-04-07T00:15:57.551Z,4.5827
2019-04-07T00:17:15.018Z,4.8363
2019-04-07T00:18:32.527Z,4.9912
2019-04-07T00:19:50.406Z,5.0793
2019-04-07T00:21:07.896Z,5.0046
2019-04-07T00:22:25.318Z,4.9912
2019-04-07T00:23:42.979Z,4.8791
2019-04-07T00:25:00.720Z,4.7536
2019-04-07T00:26:18.255Z,4.7375
2019-04-07T00:27:35.737Z,4.7375
2019-04-07T00:28:53.202Z,4.6681
2019-04-07T00:30:10.755Z,4.5987
2019-04-07T00:31:28.877Z,4.7669
2019-04-07T00:32:46.769Z,4.8791
2019-04-07T00:34:04.252Z,4.8363
2019-04-07T00:35:26.822Z,4.8497
2019-04-07T00:36:43.083Z,4.8497
2019-04-07T00:38:00.616Z,4.7803
2019-04-07T00:39:18.113Z,4.7108
2019-04-07T00:40:35.889Z,4.7936
2019-04-07T00:41:53.332Z,4.8497
2019-04-07T00:43:10.884Z,4.6681
2019-04-07T00:44:29.023Z,4.6387
2019-04-07T00:45:47.007Z,4.6548
2019-04-07T00:47:04.480Z,4.4278
2019-04-07T00:48:22.159Z,4.5132
2019-04-07T00:49:40.078Z,4.4011
2019-04-07T00:50:57.634Z,4.5426
2019-04-07T00:52:15.050Z,4.8657
2019-04-07T00:53:32.599Z,4.9779
2019-04-07T00:54:50.055Z,5.0793
2019-04-07T00:56:07.487Z,4.5987
2019-04-07T00:57:25.344Z,4.4705
2019-04-07T00:58:44.493Z,4.6681
2019-04-07T01:00:02.824Z,4.4144
2019-04-07T01:01:20.720Z,4.0887
2019-04-07T01:02:38.757Z,4.7936
2019-04-07T01:03:56.833Z,4.5693
2019-04-07T01:05:14.773Z,4.3584
2019-04-07T01:06:32.921Z,4.3877
2019-04-07T01:07:50.947Z,4.8363
2019-04-07T01:09:09.110Z,4.5827
2019-04-07T01:10:27.264Z,4.6387
2019-04-07T01:11:44.782Z,4.9218
2019-04-07T01:13:02.212Z,4.7536
2019-04-07T01:14:19.806Z,4.4999
2019-04-07T01:15:37.267Z,4.4999
2019-04-07T01:16:53.760Z,4.5266
2019-04-07T01:18:11.207Z,5.3597
2019-04-07T01:19:28.870Z,5.3037
2019-04-07T01:20:46.869Z,5.5146
2019-04-07T01:22:04.331Z,5.5573
2019-04-07T01:23:22.344Z,5.4025
2019-04-07T01:24:40.503Z,5.2476
2019-04-07T01:25:58.536Z,5.1782
2019-04-07T01:27:16.043Z,5.0660
2019-04-07T01:28:33.488Z,4.8791
2019-04-07T01:29:50.938Z,4.9084
2019-04-07T01:31:08.777Z,4.9218
2019-04-07T01:32:26.676Z,4.9645
2019-04-07T01:33:44.348Z,5.0660
2019-04-07T01:35:02.414Z,5.0660
2019-04-07T01:36:19.942Z,4.9912
2019-04-07T01:37:37.381Z,5.0233
2019-04-07T01:38:54.887Z,5.1621
2019-04-07T01:40:12.372Z,5.1488
2019-04-07T01:41:29.806Z,5.1488
2019-04-07T01:42:47.286Z,5.4318
2019-04-07T01:44:04.798Z,5.3731
2019-04-07T01:45:22.285Z,5.3464
2019-04-07T01:46:39.704Z,5.2770
2019-04-07T01:47:57.145Z,5.2609
2019-04-07T01:49:15.025Z,5.2609
2019-04-07T01:50:32.781Z,5.3037
2019-04-07T01:51:50.442Z,5.2209
2019-04-07T01:53:07.893Z,5.1621
2019-04-07T01:54:25.705Z,5.2476
2019-04-07T01:55:43.881Z,5.1621
2019-04-07T01:57:01.407Z,5.1061
2019-04-07T01:58:20.057Z,5.0660
2019-04-07T01:59:37.672Z,4.9912
2019-04-07T02:00:54.158Z,5.0366
2019-04-07T02:02:11.584Z,5.0366
2019-04-07T02:03:29.105Z,5.0046
2019-04-07T02:04:46.553Z,4.9645
2019-04-07T02:06:05.557Z,4.9645
2019-04-07T02:07:23.777Z,4.9912
2019-04-07T02:08:41.725Z,5.1354
2019-04-07T02:10:00.045Z,5.0927
2019-04-07T02:11:17.528Z,5.1354
2019-04-07T02:12:35.168Z,5.2342
2019-04-07T02:13:53.263Z,5.4719
2019-04-07T02:15:11.310Z,5.3330
2019-04-07T02:16:28.780Z,5.1488
2019-04-07T02:17:46.926Z,5.0793
2019-04-07T02:19:05.047Z,5.0660
2019-04-07T02:20:23.189Z,5.0500
2019-04-07T02:21:40.713Z,5.0927
2019-04-07T02:22:58.167Z,4.9779
2019-04-07T02:24:15.771Z,5.0233
2019-04-07T02:25:33.274Z,4.9084
2019-04-07T02:26:50.755Z,4.7803
2019-04-07T02:28:08.202Z,4.6681
2019-04-07T02:29:25.662Z,4.6681
2019-04-07T02:30:43.118Z,4.6681
2019-04-07T02:32:01.315Z,4.6681
2019-04-07T02:33:19.883Z,4.8363
2019-04-07T02:34:36.351Z,4.8363
2019-04-07T02:35:53.801Z,4.8924
2019-04-07T02:37:11.990Z,5.0500
2019-04-07T02:38:29.385Z,5.3597
2019-04-07T02:39:47.066Z,5.8110
2019-04-07T02:41:04.544Z,5.7977
2019-04-07T02:42:22.800Z,5.7977
2019-04-07T02:43:40.397Z,6.0513
2019-04-07T02:44:57.887Z,6.0513
2019-04-07T02:46:14.833Z,6.0513
2019-04-07T02:47:32.307Z,5.9125
2019-04-07T02:48:50.980Z,5.9258
2019-04-07T02:50:08.868Z,5.9552
2019-04-07T02:51:26.401Z,5.8831
2019-04-07T02:52:43.876Z,5.8965
2019-04-07T02:54:02.546Z,5.7683
2019-04-07T02:55:21.871Z,5.6989
2019-04-07T02:56:39.899Z,5.7816
2019-04-07T02:57:58.263Z,5.7256
2019-04-07T02:59:16.192Z,5.5707
2019-04-07T03:00:33.686Z,5.6001
2019-04-07T03:01:52.003Z,5.4585
2019-04-07T03:03:09.540Z,5.4452
2019-04-07T03:04:27.020Z,5.4318
2019-04-07T03:05:45.261Z,5.5280
2019-04-07T03:07:03.008Z,5.4719
2019-04-07T03:08:20.466Z,5.3170
2019-04-07T03:09:37.909Z,5.2770
2019-04-07T03:10:55.491Z,5.2609
2019-04-07T03:12:13.759Z,5.2476
2019-04-07T03:13:31.634Z,5.2209
2019-04-07T03:14:49.411Z,5.2770
2019-04-07T03:16:07.671Z,5.3731
2019-04-07T03:17:25.662Z,5.3170
2019-04-07T03:18:44.247Z,5.3891
2019-04-07T03:20:02.891Z,5.3597
2019-04-07T03:21:20.492Z,5.4158
2019-04-07T03:22:38.457Z,5.4452
2019-04-07T03:23:56.484Z,5.4025
2019-04-07T03:25:14.014Z,5.4158
2019-04-07T03:26:32.275Z,5.7816
2019-04-07T03:27:51.393Z,5.5280
2019-04-07T03:29:09.752Z,5.5867
2019-04-07T03:30:28.425Z,5.7683
2019-04-07T03:31:50.407Z,5.6134
2019-04-07T03:33:13.235Z,5.9686
2019-04-07T03:34:33.388Z,6.0513
2019-04-07T03:35:53.874Z,5.9392
2019-04-07T03:37:27.089Z,6.0513
2019-04-07T03:38:36.710Z,6.0674
2019-04-07T03:39:54.289Z,5.9392
2019-04-07T03:41:12.011Z,6.0513
2019-04-07T03:42:29.833Z,6.0246
2019-04-07T03:43:48.317Z,6.1929
2019-04-07T03:45:06.073Z,6.2222
2019-04-07T03:46:23.730Z,6.0807
2019-04-07T03:47:42.319Z,5.9552
2019-04-07T03:48:59.931Z,5.9686
2019-04-07T03:50:18.544Z,6.0513
2019-04-07T03:51:36.402Z,6.0941
2019-04-07T03:52:54.466Z,6.3771
2019-04-07T03:54:12.930Z,6.2490
2019-04-07T03:55:31.097Z,6.2783
2019-04-07T03:56:48.846Z,6.2783
2019-04-07T03:58:08.020Z,5.9953
2019-04-07T03:59:24.948Z,6.0513
2019-04-07T04:00:43.426Z,5.8110
2019-04-07T04:02:00.900Z,5.5573
2019-04-07T04:03:19.289Z,5.4719
2019-04-07T04:04:37.267Z,5.3731
2019-04-07T04:05:55.165Z,5.4025
2019-04-07T04:07:22.609Z,5.5707
2019-04-07T04:08:36.240Z,5.6268
2019-04-07T04:09:54.579Z,5.6428
2019-04-07T04:11:12.043Z,5.9258
2019-04-07T04:12:30.021Z,5.7977
2019-04-07T04:13:47.805Z,5.6989
2019-04-07T04:15:06.675Z,5.6561
2019-04-07T04:16:24.923Z,5.6428
2019-04-07T04:17:43.067Z,5.6134
2019-04-07T04:19:00.517Z,5.5440
2019-04-07T04:20:17.962Z,5.4719
2019-04-07T04:21:36.363Z,5.5707
2019-04-07T04:22:54.726Z,5.6989
2019-04-07T04:24:12.327Z,5.5707
2019-04-07T04:25:30.406Z,5.5013
2019-04-07T04:26:48.038Z,5.6001
2019-04-07T04:28:05.517Z,5.4025
2019-04-07T04:29:23.358Z,5.2049
2019-04-07T04:30:42.042Z,5.1061
2019-04-07T04:32:01.399Z,5.0660
2019-04-07T04:33:19.904Z,5.0660
2019-04-07T04:34:39.009Z,5.0366
2019-04-07T04:35:56.537Z,5.1488
2019-04-07T04:37:14.770Z,5.1488
2019-04-07T04:38:32.410Z,5.0500
2019-04-07T04:39:50.975Z,5.1061
2019-04-07T04:41:08.726Z,5.0500
2019-04-07T04:42:26.823Z,5.0366
2019-04-07T04:43:45.150Z,5.2609
2019-04-07T04:45:02.471Z,5.1061
2019-04-07T04:46:20.055Z,5.2209
2019-04-07T04:47:38.128Z,5.0046
2019-04-07T04:48:56.724Z,4.8230
2019-04-07T04:50:14.825Z,4.7375
2019-04-07T04:51:36.271Z,4.7803
2019-04-07T04:52:54.759Z,4.7242
2019-04-07T04:54:12.585Z,4.7803
2019-04-07T04:55:30.129Z,4.7536
2019-04-07T04:56:47.558Z,4.5987
2019-04-07T04:58:05.420Z,4.5693
2019-04-07T04:59:22.989Z,4.6681
2019-04-07T05:00:41.369Z,4.5987
2019-04-07T05:01:59.034Z,4.6681
2019-04-07T05:03:17.364Z,4.6548
2019-04-07T05:04:35.590Z,4.6548
2019-04-07T05:05:53.478Z,4.7936
2019-04-07T05:07:11.317Z,4.9485
2019-04-07T05:08:29.601Z,4.8230
2019-04-07T05:09:52.504Z,4.7536
2019-04-07T05:11:09.611Z,4.8363
2019-04-07T05:12:27.441Z,5.1221
2019-04-07T05:13:44.972Z,5.2770
2019-04-07T05:15:02.453Z,5.4452
2019-04-07T05:16:19.901Z,5.5146
2019-04-07T05:17:36.929Z,5.6428
2019-04-07T05:18:54.578Z,5.8965
2019-04-07T05:20:12.402Z,6.0380
2019-04-07T05:21:30.381Z,6.1234
2019-04-07T05:22:48.726Z,5.9819
2019-04-07T05:24:06.812Z,5.9686
2019-04-07T05:25:24.939Z,6.0246
2019-04-07T05:26:43.024Z,5.8831
2019-04-07T05:28:01.180Z,6.0246
2019-04-07T05:29:18.703Z,5.9819
2019-04-07T05:30:36.562Z,5.9125
2019-04-07T05:31:54.091Z,6.0513
2019-04-07T05:33:12.077Z,6.1502
2019-04-07T05:34:29.572Z,6.2062
2019-04-07T05:35:47.009Z,6.1929
2019-04-07T05:37:04.439Z,6.2222
2019-04-07T05:38:22.338Z,6.2917
2019-04-07T05:39:40.370Z,6.3611
2019-04-07T05:40:58.664Z,6.2917
2019-04-07T05:42:16.642Z,6.4893
2019-04-07T05:43:35.444Z,6.7163
2019-04-07T05:44:53.574Z,6.5454
2019-04-07T05:46:11.059Z,6.6041
2019-04-07T05:47:27.637Z,6.6335
2019-04-07T05:48:45.294Z,6.5721
2019-04-07T05:50:04.111Z,6.7296
2019-04-07T05:51:22.875Z,6.6735
2019-04-07T05:52:41.098Z,6.6041
2019-04-07T05:53:59.284Z,6.3050
2019-04-07T05:55:20.646Z,6.4172
2019-04-07T05:56:39.321Z,6.7590
2019-04-07T05:57:57.501Z,6.5026
2019-04-07T05:59:15.667Z,6.3050
2019-04-07T06:00:33.981Z,6.2917
2019-04-07T06:01:54.808Z,6.1368
2019-04-07T06:03:13.903Z,6.1101
2019-04-07T06:04:31.502Z,6.1234
2019-04-07T06:05:51.117Z,6.0513
2019-04-07T06:07:09.130Z,5.9953
2019-04-07T06:08:32.564Z,6.1368
2019-04-07T06:09:51.262Z,6.2222
2019-04-07T06:11:10.409Z,6.4759
2019-04-07T06:12:28.859Z,6.4893
2019-04-07T06:13:46.611Z,6.5160
2019-04-07T06:15:04.237Z,6.5454
2019-04-07T06:16:22.555Z,6.7029
2019-04-07T06:17:40.082Z,6.9272
2019-04-07T06:18:57.758Z,6.8711
2019-04-07T06:20:17.547Z,7.0260
2019-04-07T06:21:35.198Z,7.2797
2019-04-07T06:22:53.742Z,7.4933
2019-04-07T06:24:12.233Z,7.4639
2019-04-07T06:25:33.096Z,7.6482
2019-04-07T06:26:52.105Z,7.5788
2019-04-07T06:28:09.662Z,7.7737
2019-04-07T06:29:27.962Z,7.8458
2019-04-07T06:30:46.159Z,7.8298
2019-04-07T06:32:05.513Z,7.8592
2019-04-07T06:33:25.299Z,7.8458
2019-04-07T06:34:44.173Z,7.8298
2019-04-07T06:36:01.894Z,7.7737
2019-04-07T06:37:20.130Z,7.8031
2019-04-07T06:38:41.617Z,7.7604
2019-04-07T06:39:59.950Z,7.6909
2019-04-07T06:41:17.430Z,7.7604
2019-04-07T06:42:35.461Z,7.7337
2019-04-07T06:43:52.963Z,7.6749
2019-04-07T06:45:10.875Z,7.6909
2019-04-07T06:46:28.686Z,7.7043
2019-04-07T06:47:46.389Z,7.6349
2019-04-07T06:49:04.282Z,7.7470
2019-04-07T06:50:22.454Z,7.8031
2019-04-07T06:51:39.945Z,7.9446
2019-04-07T06:52:57.699Z,8.1395
2019-04-07T06:54:18.538Z,8.2837
2019-04-07T06:55:37.554Z,8.3532
2019-04-07T06:56:55.500Z,8.4680
2019-04-07T06:58:12.981Z,8.5241
2019-04-07T06:59:30.434Z,8.6069
2019-04-07T07:00:46.967Z,8.5374
2019-04-07T07:02:04.463Z,8.5802
2019-04-07T07:03:22.484Z,8.4680
2019-04-07T07:04:43.593Z,8.5081
2019-04-07T07:06:03.655Z,8.5802
2019-04-07T07:07:21.558Z,8.5374
2019-04-07T07:08:45.830Z,8.6496
2019-04-07T07:10:02.126Z,8.7484
2019-04-07T07:11:28.060Z,8.6790
2019-04-07T07:12:42.536Z,8.5508
2019-04-07T07:13:59.009Z,8.6496
2019-04-07T07:15:16.436Z,8.7057
2019-04-07T07:16:33.931Z,8.8045
2019-04-07T07:17:52.238Z,8.8045
2019-04-07T07:19:12.907Z,8.7484
2019-04-07T07:20:31.193Z,8.9166
2019-04-07T07:21:49.052Z,8.9487
2019-04-07T07:23:07.676Z,8.8899
2019-04-07T07:24:26.345Z,8.8899
2019-04-07T07:25:44.013Z,8.9166
2019-04-07T07:27:02.684Z,8.9166
2019-04-07T07:28:23.710Z,9.0047
2019-04-07T07:29:45.341Z,8.9033
2019-04-07T07:31:04.298Z,8.8045
2019-04-07T07:32:22.560Z,8.9033
2019-04-07T07:33:42.440Z,8.9620
2019-04-07T07:35:01.038Z,9.1169
2019-04-07T07:36:21.419Z,9.1463
2019-04-07T07:37:40.151Z,9.1463
2019-04-07T07:39:02.269Z,9.2424
2019-04-07T07:40:22.119Z,9.1730
2019-04-07T07:41:41.014Z,9.2584
2019-04-07T07:42:59.438Z,9.3706
2019-04-07T07:44:17.581Z,9.4827
2019-04-07T07:45:35.052Z,9.4400
2019-04-07T07:46:52.815Z,9.4961
2019-04-07T07:48:10.889Z,9.4560
2019-04-07T07:49:33.535Z,9.4133
2019-04-07T07:50:51.212Z,9.2023
2019-04-07T07:52:08.669Z,9.0181
2019-04-07T07:53:28.238Z,9.0875
2019-04-07T07:54:46.356Z,9.1463
2019-04-07T07:56:08.454Z,9.2023
2019-04-07T07:57:26.229Z,9.2023
2019-04-07T07:58:43.935Z,9.1596
2019-04-07T08:00:04.550Z,9.3973
2019-04-07T08:01:24.427Z,9.3145
2019-04-07T08:02:42.050Z,9.4266
2019-04-07T08:03:59.746Z,9.2718
2019-04-07T08:05:17.250Z,9.1863
2019-04-07T08:06:36.680Z,9.0742
2019-04-07T08:07:56.784Z,9.1730
2019-04-07T08:09:15.510Z,9.2290
2019-04-07T08:10:36.354Z,9.3011
2019-04-07T08:11:54.388Z,9.2584
2019-04-07T08:13:11.868Z,9.2584
2019-04-07T08:14:29.364Z,9.2290
2019-04-07T08:15:46.946Z,9.4266
2019-04-07T08:17:04.483Z,9.4560
2019-04-07T08:18:21.906Z,9.5522
2019-04-07T08:19:42.257Z,9.5254
2019-04-07T08:21:00.765Z,9.5388
2019-04-07T08:22:27.462Z,9.5522
2019-04-07T08:23:43.650Z,9.5682
2019-04-07T08:25:02.573Z,9.4133
2019-04-07T08:26:23.890Z,9.3011
2019-04-07T08:27:41.991Z,9.3278
2019-04-07T08:29:00.102Z,9.5121
2019-04-07T08:30:17.331Z,9.4400
2019-04-07T08:31:34.923Z,9.6510
2019-04-07T08:32:53.242Z,9.7951
2019-04-07T08:34:10.955Z,9.7391
2019-04-07T08:35:28.849Z,9.6830
2019-04-07T08:36:42.490Z,10.0755
2019-04-07T08:38:00.975Z,10.0355
2019-04-07T08:39:23.771Z,10.2731
2019-04-07T08:40:40.842Z,9.8245
2019-04-07T08:41:58.303Z,10.2037
2019-04-07T08:43:19.680Z,10.1183
2019-04-07T08:44:38.146Z,10.4868
2019-04-07T08:45:55.764Z,10.4601
2019-04-07T08:47:18.844Z,10.4040
2019-04-07T08:48:35.587Z,10.5295
2019-04-07T08:49:55.434Z,10.5989
2019-04-07T08:51:14.904Z,10.9941
2019-04-07T08:52:33.153Z,10.7271
2019-04-07T08:53:50.622Z,10.3746
2019-04-07T08:55:08.083Z,10.5856
2019-04-07T08:56:26.648Z,11.1784
2019-04-07T08:57:45.680Z,10.8392
2019-04-07T08:59:03.897Z,10.6149
2019-04-07T09:00:21.463Z,10.3746
2019-04-07T09:01:38.937Z,10.1743
2019-04-07T09:03:03.642Z,10.2731
2019-04-07T09:04:18.928Z,10.3292
2019-04-07T09:05:37.377Z,10.9247
2019-04-07T09:06:54.890Z,10.6550
2019-04-07T09:08:12.317Z,10.8392
2019-04-07T09:09:33.907Z,10.5989
2019-04-07T09:10:53.828Z,11.1650
2019-04-07T09:12:11.448Z,10.9808
2019-04-07T09:13:31.677Z,11.2371
2019-04-07T09:14:51.462Z,11.2505
2019-04-07T09:16:11.527Z,11.3066
2019-04-07T09:17:38.577Z,11.2077
2019-04-07T09:19:01.120Z,11.1089
2019-04-07T09:20:16.939Z,11.1223
2019-04-07T09:21:39.975Z,11.0822
2019-04-07T09:22:58.257Z,11.1944
2019-04-07T09:24:16.757Z,11.4054
2019-04-07T09:25:37.855Z,10.9380
2019-04-07T09:26:56.666Z,11.3493
2019-04-07T09:28:14.300Z,11.5869
2019-04-07T09:29:32.431Z,11.6857
2019-04-07T09:30:42.157Z,11.2371
2019-04-07T09:32:00.105Z,11.0529
2019-04-07T09:33:16.730Z,11.3493
2019-04-07T09:34:34.555Z,10.9087
2019-04-07T09:35:56.673Z,11.0956
2019-04-07T09:37:17.675Z,10.5428
2019-04-07T09:38:36.943Z,10.5161
2019-04-07T09:39:59.553Z,10.5428
2019-04-07T09:41:21.569Z,10.4307
2019-04-07T09:42:40.223Z,10.5589
2019-04-07T09:44:01.113Z,10.2037
2019-04-07T09:45:19.979Z,10.4307
2019-04-07T09:46:41.629Z,10.5722
2019-04-07T09:47:59.982Z,10.4307
2019-04-07T09:49:21.239Z,10.7271
2019-04-07T09:50:40.805Z,10.8526
2019-04-07T09:51:58.287Z,10.8820
2019-04-07T09:53:17.071Z,10.7271
2019-04-07T09:54:36.190Z,10.9941
2019-04-07T09:55:55.558Z,11.1517
2019-04-07T09:57:14.154Z,11.0368
2019-04-07T09:58:32.006Z,10.9648
2019-04-07T09:59:52.209Z,11.2772
2019-04-07T10:01:11.078Z,11.6857
2019-04-07T10:02:32.038Z,11.6297
2019-04-07T10:03:51.063Z,11.9848
2019-04-07T10:05:11.131Z,11.3199
2019-04-07T10:06:29.843Z,11.4481
2019-04-07T10:07:47.905Z,11.1383
2019-04-07T10:09:05.575Z,11.1517
2019-04-07T10:10:23.731Z,10.8392
2019-04-07T10:11:41.760Z,10.8099
2019-04-07T10:12:59.743Z,10.8099
2019-04-07T10:14:18.457Z,10.8686
2019-04-07T10:15:36.152Z,10.8259
2019-04-07T10:16:53.672Z,11.0075
2019-04-07T10:18:11.135Z,10.8526
2019-04-07T10:19:29.252Z,10.9648
2019-04-07T10:20:47.370Z,10.6710
2019-04-07T10:22:04.808Z,10.8099
2019-04-07T10:23:23.097Z,10.6416
2019-04-07T10:24:40.607Z,10.9648
2019-04-07T10:25:58.461Z,10.9648
2019-04-07T10:27:17.620Z,10.9808
2019-04-07T10:28:36.710Z,10.8392
2019-04-07T10:29:56.611Z,10.9087
2019-04-07T10:31:13.801Z,10.7137
2019-04-07T10:32:31.887Z,10.6844
2019-04-07T10:33:49.486Z,10.8686
2019-04-07T10:35:07.054Z,10.7271
2019-04-07T10:36:25.801Z,10.9941
2019-04-07T10:37:44.301Z,10.9808
2019-04-07T10:39:03.160Z,10.8953
2019-04-07T10:40:23.063Z,10.7698
2019-04-07T10:41:41.737Z,10.5428
2019-04-07T10:42:59.757Z,10.5028
2019-04-07T10:44:17.906Z,10.4173
2019-04-07T10:45:35.515Z,10.2731
2019-04-07T10:46:52.961Z,10.4040
2019-04-07T10:48:11.109Z,10.2865
2019-04-07T10:49:29.568Z,10.3292
2019-04-07T10:50:47.067Z,10.3880
2019-04-07T10:52:04.575Z,10.3292
2019-04-07T10:53:22.727Z,10.2171
2019-04-07T10:54:40.478Z,10.2598
2019-04-07T10:55:57.997Z,10.4734
2019-04-07T10:57:16.634Z,10.6416
2019-04-07T10:58:35.109Z,10.8099
2019-04-07T10:59:53.295Z,10.8099
2019-04-07T11:01:11.124Z,10.8259
2019-04-07T11:02:29.362Z,11.1383
2019-04-07T11:03:46.871Z,11.1089
2019-04-07T11:05:05.111Z,11.0368
2019-04-07T11:06:22.788Z,10.9941
2019-04-07T11:07:40.431Z,10.8686
2019-04-07T11:08:57.918Z,11.0529
2019-04-07T11:10:15.885Z,11.0822
2019-04-07T11:11:33.374Z,10.9648
2019-04-07T11:12:51.354Z,10.8686
2019-04-07T11:14:09.855Z,10.9941
2019-04-07T11:15:28.304Z,10.8099
2019-04-07T11:16:46.998Z,10.8953
2019-04-07T11:18:04.614Z,10.9247
2019-04-07T11:19:22.084Z,10.6977
2019-04-07T11:20:39.525Z,10.8392
2019-04-07T11:21:57.961Z,10.8820
2019-04-07T11:23:15.609Z,10.8686
2019-04-07T11:24:33.859Z,10.8392
2019-04-07T11:25:51.400Z,10.7404
2019-04-07T11:27:09.275Z,10.8099
2019-04-07T11:28:28.855Z,11.0368
2019-04-07T11:29:46.715Z,11.0208
2019-04-07T11:31:04.165Z,11.1383
2019-04-07T11:32:20.655Z,11.0529
2019-04-07T11:33:38.114Z,10.9648
2019-04-07T11:34:55.551Z,10.9941
2019-04-07T11:36:13.811Z,11.2211
2019-04-07T11:37:31.346Z,10.9380
2019-04-07T11:38:49.477Z,10.9808
2019-04-07T11:40:06.993Z,11.1517
2019-04-07T11:41:27.326Z,11.1517
2019-04-07T11:42:46.075Z,11.2772
2019-04-07T11:44:03.580Z,11.2638
2019-04-07T11:45:21.061Z,11.0368
2019-04-07T11:46:38.923Z,11.0529
2019-04-07T11:47:55.395Z,10.9808
2019-04-07T11:49:13.506Z,11.2077
2019-04-07T11:50:31.055Z,11.3626
2019-04-07T11:51:48.956Z,11.2371
2019-04-07T11:53:07.443Z,10.9808
2019-04-07T11:54:25.201Z,10.8259
2019-04-07T11:55:43.179Z,10.8686
2019-04-07T11:57:00.896Z,10.8392
2019-04-07T11:58:25.534Z,10.9514
2019-04-07T11:59:39.870Z,11.1089
2019-04-07T12:00:58.103Z,10.9380
2019-04-07T12:02:18.561Z,10.9648
2019-04-07T12:03:36.467Z,10.8820
2019-04-07T12:04:55.382Z,10.7271
2019-04-07T12:06:14.335Z,10.8526
2019-04-07T12:07:33.569Z,11.1944
2019-04-07T12:08:51.173Z,11.2371
2019-04-07T12:10:09.548Z,11.3920
2019-04-07T12:11:27.745Z,11.3493
2019-04-07T12:12:45.288Z,11.0368
2019-04-07T12:14:02.845Z,11.1223
2019-04-07T12:15:24.172Z,11.3333
2019-04-07T12:16:42.705Z,11.3920
2019-04-07T12:18:00.311Z,11.5736
2019-04-07T12:19:20.391Z,11.2371
2019-04-07T12:20:42.011Z,11.2505
2019-04-07T12:21:59.510Z,11.2077
2019-04-07T12:23:21.773Z,11.4748
2019-04-07T12:24:39.359Z,11.3066
2019-04-07T12:25:57.586Z,11.5442
2019-04-07T12:27:15.183Z,11.4481
2019-04-07T12:28:33.392Z,11.2371
2019-04-07T12:29:51.898Z,11.2772
2019-04-07T12:31:10.215Z,11.1383
2019-04-07T12:32:27.708Z,11.2077
2019-04-07T12:33:45.221Z,11.0208
2019-04-07T12:35:03.183Z,10.9247
2019-04-07T12:36:21.581Z,11.0822
2019-04-07T12:37:43.340Z,11.3333
2019-04-07T12:39:01.918Z,11.3626
2019-04-07T12:40:22.341Z,11.4481
2019-04-07T12:41:40.064Z,11.3760
2019-04-07T12:42:58.088Z,11.1944
2019-04-07T12:44:15.863Z,11.2505
2019-04-07T12:45:35.642Z,11.4614
2019-04-07T12:46:54.008Z,11.3333
2019-04-07T12:48:11.625Z,11.4321
2019-04-07T12:49:29.863Z,11.4614
2019-04-07T12:50:49.825Z,11.6430
2019-04-07T12:52:08.573Z,11.5309
2019-04-07T12:53:26.384Z,11.8860
2019-04-07T12:54:43.969Z,11.8566
2019-04-07T12:56:02.453Z,11.8860
2019-04-07T12:57:20.188Z,11.8166
2019-04-07T12:58:41.221Z,11.9287
2019-04-07T12:59:59.806Z,12.0542
2019-04-07T13:01:19.802Z,11.9287
2019-04-07T13:02:38.127Z,11.7445
2019-04-07T13:03:55.851Z,11.8006
2019-04-07T13:05:13.490Z,11.7605
2019-04-07T13:06:30.995Z,11.8166
2019-04-07T13:07:51.247Z,12.0970
2019-04-07T13:09:10.342Z,12.2225
2019-04-07T13:10:28.062Z,12.2946
2019-04-07T13:11:49.425Z,12.5349
2019-04-07T13:13:08.022Z,12.1958
2019-04-07T13:14:25.707Z,12.4521
2019-04-07T13:15:47.478Z,12.2812
2019-04-07T13:17:05.707Z,12.5910
2019-04-07T13:18:23.187Z,12.5776
2019-04-07T13:19:44.043Z,12.7752
2019-04-07T13:21:03.321Z,12.6070
2019-04-07T13:22:21.526Z,12.8607
2019-04-07T13:23:39.717Z,13.2559
2019-04-07T13:24:59.008Z,13.6217
2019-04-07T13:26:17.604Z,12.7752
2019-04-07T13:27:37.231Z,12.8447
2019-04-07T13:28:56.426Z,12.9435
2019-04-07T13:30:13.914Z,12.7192
2019-04-07T13:31:31.864Z,13.1144
2019-04-07T13:32:53.004Z,12.7058
2019-04-07T13:34:12.690Z,12.9862
2019-04-07T13:35:29.261Z,12.7192
2019-04-07T13:36:46.695Z,12.8447
2019-04-07T13:38:05.559Z,13.1144
2019-04-07T13:39:22.021Z,12.7752
2019-04-07T13:40:42.655Z,13.0156
2019-04-07T13:42:02.217Z,13.0716
2019-04-07T13:43:19.686Z,13.2132
2019-04-07T13:44:39.627Z,13.0716
2019-04-07T13:45:58.830Z,13.1731
2019-04-07T13:47:16.403Z,13.1304
2019-04-07T13:48:35.509Z,12.7058
2019-04-07T13:49:55.406Z,12.8180
2019-04-07T13:51:15.745Z,12.9007
2019-04-07T13:52:34.411Z,12.8046
2019-04-07T13:53:52.331Z,13.0983
2019-04-07T13:55:09.826Z,13.0423
2019-04-07T13:56:27.276Z,13.1998
2019-04-07T13:57:45.003Z,13.2692
2019-04-07T13:59:05.961Z,13.1998
2019-04-07T14:00:25.223Z,13.0156
2019-04-07T14:01:42.710Z,12.9995
2019-04-07T14:03:01.320Z,13.0556
2019-04-07T14:04:21.159Z,13.0716
2019-04-07T14:05:40.687Z,12.9995
2019-04-07T14:06:58.820Z,13.0156
2019-04-07T14:08:16.466Z,12.6898
2019-04-07T14:09:35.380Z,12.7752
2019-04-07T14:10:52.912Z,13.0423
2019-04-07T14:12:12.530Z,12.9168
2019-04-07T14:13:31.153Z,13.2132
2019-04-07T14:14:49.398Z,13.0156
2019-04-07T14:16:07.419Z,12.7192
2019-04-07T14:17:25.004Z,13.2692
2019-04-07T14:18:44.991Z,12.9995
2019-04-07T14:20:05.011Z,12.7886
2019-04-07T14:21:22.788Z,12.6764
2019-04-07T14:22:40.996Z,12.7192
2019-04-07T14:23:59.315Z,12.9862
2019-04-07T14:25:16.823Z,13.4108
2019-04-07T14:26:34.646Z,13.0716
2019-04-07T14:27:52.601Z,12.8046
2019-04-07T14:29:10.109Z,12.5509
2019-04-07T14:30:28.044Z,12.1530
2019-04-07T14:31:45.542Z,12.1530
2019-04-07T14:33:03.454Z,12.1824
2019-04-07T14:34:21.771Z,12.3079
2019-04-07T14:35:39.249Z,12.4655
2019-04-07T14:37:00.030Z,12.7459
2019-04-07T14:38:17.516Z,12.9435
2019-04-07T14:39:35.809Z,13.2132
2019-04-07T14:40:53.313Z,13.0850
2019-04-07T14:42:11.266Z,12.9728
2019-04-07T14:43:29.894Z,12.3213
2019-04-07T14:44:47.380Z,12.4228
2019-04-07T14:46:04.384Z,12.5349
2019-04-07T14:47:21.914Z,12.7752
2019-04-07T14:48:40.212Z,12.7752
2019-04-07T14:49:57.749Z,12.8046
2019-04-07T14:51:15.539Z,12.9568
2019-04-07T14:52:33.722Z,12.7459
2019-04-07T14:53:51.185Z,13.1144
2019-04-07T14:55:08.654Z,13.0156
2019-04-07T14:56:26.295Z,12.8607
2019-04-07T14:57:43.751Z,13.0423
2019-04-07T14:59:00.651Z,13.3120
2019-04-07T15:00:18.374Z,13.0156
2019-04-07T15:01:36.765Z,12.7058
2019-04-07T15:02:54.267Z,13.0156
2019-04-07T15:04:11.753Z,12.7886
2019-04-07T15:05:29.846Z,12.9007
2019-04-07T15:06:47.363Z,12.9301
2019-04-07T15:07:59.483Z,12.9568
2019-04-07T15:09:18.793Z,12.6204
2019-04-07T15:10:37.241Z,12.8180
2019-04-07T15:11:54.809Z,12.8313
2019-04-07T15:13:12.257Z,12.2519
2019-04-07T15:14:32.874Z,12.5910
2019-04-07T15:15:51.673Z,12.7192
2019-04-07T15:17:10.955Z,12.4949
2019-04-07T15:18:28.654Z,12.5349
2019-04-07T15:19:46.250Z,12.5216
2019-04-07T15:21:04.575Z,12.6204
2019-04-07T15:22:25.887Z,12.4949
2019-04-07T15:23:46.795Z,12.4788
2019-04-07T15:25:07.201Z,12.6337
2019-04-07T15:26:25.520Z,12.9435
2019-04-07T15:27:42.981Z,13.1571
2019-04-07T15:29:05.334Z,13.0850
2019-04-07T15:30:22.853Z,12.7459
2019-04-07T15:31:40.612Z,12.8447
2019-04-07T15:33:01.008Z,12.5643
2019-04-07T15:34:20.126Z,13.0289
2019-04-07T15:35:38.289Z,12.6497
2019-04-07T15:36:56.797Z,12.5349
2019-04-07T15:38:15.285Z,12.0409
2019-04-07T15:39:32.887Z,12.2812
2019-04-07T15:40:50.641Z,12.2519
2019-04-07T15:42:09.463Z,12.1958
2019-04-07T15:43:27.991Z,12.0676
2019-04-07T15:44:46.267Z,11.8727
2019-04-07T15:46:03.845Z,11.7872
2019-04-07T15:47:22.234Z,11.9127
2019-04-07T15:48:40.825Z,11.7285
2019-04-07T15:49:59.478Z,11.9554
2019-04-07T15:51:17.570Z,11.9287
2019-04-07T15:52:35.838Z,11.9421
2019-04-07T15:53:54.246Z,11.8727
2019-04-07T15:55:11.898Z,11.8566
2019-04-07T15:56:30.342Z,11.7739
2019-04-07T15:57:48.079Z,11.8860
2019-04-07T15:59:05.721Z,11.7739
2019-04-07T16:00:23.761Z,11.6991
2019-04-07T16:01:42.967Z,11.6430
2019-04-07T16:03:00.121Z,11.7605